Terminal Aerodrome Forecast
Issued by NWS Sioux Falls, SD

Home | Current Version | Previous Version | Graphics & Text | Print | Product List | Glossary On
Versions: 1 2 3 4 5 6 7 8 9 10 11 12 13 14 15 16
000
FTUS43 KFSD 240522
TAFSUX
TAF
KSUX 240522Z 2406/2506 17005KT P6SM SCT020 BKN100
     FM240900 VRB03KT 5SM BR SCT015 SCT200
     FM241400 VRB03KT P6SM SCT150
     FM241900 15008KT P6SM SCT150
     FM250000 12007KT P6SM FEW060 BKN100
      AMD NOT SKED=

USA.gov is the U.S. government's official web portal to all federal, state and local government web resources and services.